Time;durP1;ratioP1;P1;durP2;ratioP2;P2;SDS_P1;SDS_P2;PMS_P1;PMS_P2;Temp;Humidity;BMP_temperature;BMP_pressure;BME280_temperature;BME280_humidity;BME280_pressure;Samples;Min_cycle;Max_cycle;Signal;HPM_P1;HPM_P2
2021/11/22 00:06:00;;;;;;;35.2;43.4;;;;;;;7.7;73.8;98330;;;;
2021/11/22 00:16:00;;;;;;;37.6;45.3;;;;;;;7.7;73.8;98340;;;;
2021/11/22 00:27:00;;;;;;;37.6;45.3;;;;;;;7.6;73.9;98350;;;;
2021/11/22 00:38:02;;;;;;;37.6;45.3;;;;;;;7.6;74.2;98350;;;;
2021/11/22 00:48:01;;;;;;;41.8;51.3;;;;;;;7.6;74.1;98370;;;;
2021/11/22 00:58:00;;;;;;;41.8;51.3;;;;;;;7.5;74.6;98380;;;;
2021/11/22 01:09:01;;;;;;;41.8;51.3;;;;;;;7.6;74.5;98390;;;;
2021/11/22 01:20:00;;;;;;;44.2;51.4;;;;;;;7.5;74.7;98380;;;;
2021/11/22 01:31:00;;;;;;;44.2;51.4;;;;;;;7.5;74.9;98390;;;;
2021/11/22 01:41:01;;;;;;;43.5;54.9;;;;;;;7.5;74.6;98390;;;;
2021/11/22 01:51:00;;;;;;;43.5;54.9;;;;;;;7.5;74.8;98390;;;;
2021/11/22 02:02:01;;;;;;;43.5;54.9;;;;;;;7.6;74.7;98400;;;;
2021/11/22 02:13:01;;;;;;;43.4;51.1;;;;;;;7.5;74.8;98400;;;;
2021/11/22 02:24:01;;;;;;;43.4;51.1;;;;;;;7.2;75.1;98390;;;;
2021/11/22 02:35:01;;;;;;;43.4;51.1;;;;;;;6.8;76;98400;;;;
2021/11/22 02:45:01;;;;;;;48.1;56.6;;;;;;;6.6;75.9;98410;;;;
2021/11/22 02:56:03;;;;;;;48.1;56.6;;;;;;;6.5;76.2;98420;;;;
2021/11/22 03:06:01;;;;;;;48.1;56.6;;;;;;;6.3;76.7;98430;;;;
2021/11/22 03:17:01;;;;;;;49;58.4;;;;;;;6.2;78;98430;;;;
2021/11/22 03:27:02;;;;;;;49;58.4;;;;;;;6.2;77.7;98440;;;;
2021/11/22 03:38:01;;;;;;;49;58.4;;;;;;;6.3;77.7;98450;;;;
2021/11/22 03:49:00;;;;;;;52.8;63.6;;;;;;;6.3;77.6;98460;;;;
2021/11/22 03:59:01;;;;;;;52.8;63.6;;;;;;;6.3;78.3;98470;;;;
2021/11/22 04:10:01;;;;;;;49.5;60.2;;;;;;;6.4;77.9;98480;;;;
2021/11/22 04:21:00;;;;;;;49.5;60.2;;;;;;;6.5;78;98490;;;;
2021/11/22 04:31:00;;;;;;;49.5;60.2;;;;;;;6.4;78.5;98510;;;;
2021/11/22 04:42:01;;;;;;;53.1;66.7;;;;;;;6.5;78.3;98510;;;;
2021/11/22 04:53:01;;;;;;;53.1;66.7;;;;;;;6.6;78.1;98500;;;;
2021/11/22 05:03:00;;;;;;;53.1;66.7;;;;;;;6.7;78.3;98510;;;;
2021/11/22 05:14:00;;;;;;;52.4;63.1;;;;;;;6.7;78;98530;;;;
2021/11/22 05:24:01;;;;;;;52.4;63.1;;;;;;;6.8;77.8;98540;;;;
2021/11/22 05:35:00;;;;;;;52.4;63.1;;;;;;;6.8;77.5;98560;;;;
2021/11/22 05:46:00;;;;;;;51.4;58.3;;;;;;;6.9;77.5;98550;;;;
2021/11/22 05:56:01;;;;;;;51.4;58.3;;;;;;;7;77.2;98550;;;;
2021/11/22 06:06:01;;;;;;;51.4;58.3;;;;;;;7;76.9;98560;;;;
2021/11/22 06:17:01;;;;;;;54.5;68.2;;;;;;;7.1;76.9;98590;;;;
2021/11/22 06:28:01;;;;;;;54.5;68.2;;;;;;;7.1;77;98610;;;;
2021/11/22 06:39:00;;;;;;;54.5;68.2;;;;;;;7;77.2;98630;;;;
2021/11/22 06:49:01;;;;;;;53.7;61.2;;;;;;;7.1;77.4;98630;;;;
2021/11/22 07:00:01;;;;;;;53.7;61.2;;;;;;;7.1;77.3;98630;;;;
2021/11/22 07:11:00;;;;;;;50.4;58.7;;;;;;;7.3;77;98640;;;;
2021/11/22 07:21:01;;;;;;;50.4;58.7;;;;;;;7.4;76.9;98660;;;;
2021/11/22 07:32:00;;;;;;;50.4;58.7;;;;;;;7.5;76.6;98670;;;;
2021/11/22 07:42:00;;;;;;;43.6;49.7;;;;;;;7.6;76.8;98680;;;;
2021/11/22 07:53:01;;;;;;;43.6;49.7;;;;;;;7.4;77.1;98690;;;;
2021/11/22 08:04:01;;;;;;;43.6;49.7;;;;;;;7.5;77.1;98700;;;;
2021/11/22 08:15:01;;;;;;;51.7;60.6;;;;;;;7.5;77.9;98710;;;;
2021/11/22 08:26:01;;;;;;;51.7;60.6;;;;;;;7.5;78.2;98730;;;;
2021/11/22 08:37:02;;;;;;;51.7;60.6;;;;;;;7.6;78.6;98740;;;;
2021/11/22 08:47:01;;;;;;;57.1;68.3;;;;;;;7.7;78.4;98760;;;;
2021/11/22 08:57:01;;;;;;;57.1;68.3;;;;;;;7.6;78.6;98760;;;;
2021/11/22 09:07:01;;;;;;;57.1;68.3;;;;;;;7.6;78.8;98760;;;;
2021/11/22 09:18:01;;;;;;;56.1;74.1;;;;;;;7.6;79;98760;;;;
2021/11/22 09:29:01;;;;;;;56.1;74.1;;;;;;;7.9;78.5;98760;;;;
2021/11/22 09:40:01;;;;;;;57.2;71.9;;;;;;;7.9;79.2;98770;;;;
2021/11/22 09:50:02;;;;;;;57.2;71.9;;;;;;;8;79.3;98770;;;;
2021/11/22 10:00:01;;;;;;;57.2;71.9;;;;;;;7.9;79;98780;;;;
2021/11/22 10:10:02;;;;;;;54.6;65.2;;;;;;;8;78.7;98780;;;;
2021/11/22 10:20:01;;;;;;;54.6;65.2;;;;;;;7.9;79.6;98770;;;;
2021/11/22 10:30:01;;;;;;;54.6;65.2;;;;;;;8;79.5;98770;;;;
2021/11/22 10:41:01;;;;;;;54.7;64.5;;;;;;;8;79.9;98780;;;;
2021/11/22 10:52:01;;;;;;;54.7;64.5;;;;;;;7.9;79.8;98780;;;;
2021/11/22 11:02:01;;;;;;;54.7;64.5;;;;;;;7.5;78.5;98810;;;;
2021/11/22 11:12:01;;;;;;;26.9;32.3;;;;;;;7.4;77.9;98820;;;;
2021/11/22 11:22:01;;;;;;;26.9;32.3;;;;;;;7.2;77.6;98810;;;;
2021/11/22 11:33:03;;;;;;;26.9;32.3;;;;;;;7.2;77.7;98810;;;;
2021/11/22 11:43:02;;;;;;;5.3;7.8;;;;;;;7.5;77.7;98820;;;;
2021/11/22 11:54:01;;;;;;;5.3;7.8;;;;;;;7.6;77.5;98830;;;;
2021/11/22 12:04:02;;;;;;;5.3;7.8;;;;;;;7.6;77.7;98840;;;;
2021/11/22 12:14:01;;;;;;;6.9;11.7;;;;;;;7.7;77.6;98840;;;;
2021/11/22 12:24:01;;;;;;;6.9;11.7;;;;;;;7.8;77.7;98840;;;;
2021/11/22 12:34:01;;;;;;;6.9;11.7;;;;;;;7.8;78;98850;;;;
2021/11/22 12:44:01;;;;;;;7.8;15.8;;;;;;;7.5;77.2;98850;;;;
2021/11/22 12:55:03;;;;;;;7.8;15.8;;;;;;;7.2;78.4;98870;;;;
2021/11/22 13:06:01;;;;;;;7.8;15.8;;;;;;;7;78.3;98880;;;;
2021/11/22 13:16:02;;;;;;;5.3;9.4;;;;;;;6.8;78.6;98900;;;;
2021/11/22 13:27:01;;;;;;;5.3;9.4;;;;;;;6.7;78.8;98910;;;;
2021/11/22 13:37:01;;;;;;;5.3;9.4;;;;;;;6.8;78.3;98910;;;;
2021/11/22 13:47:01;;;;;;;5.6;10.7;;;;;;;6.7;78.5;98920;;;;
2021/11/22 13:58:01;;;;;;;5.6;10.7;;;;;;;6.8;78.3;98940;;;;
2021/11/22 14:09:01;;;;;;;5.2;8.4;;;;;;;6.9;78.1;98950;;;;
2021/11/22 14:20:01;;;;;;;5.2;8.4;;;;;;;6.9;78.3;98950;;;;
2021/11/22 14:30:01;;;;;;;5.2;8.4;;;;;;;6.9;78.3;98970;;;;
2021/11/22 14:40:02;;;;;;;7.5;14.5;;;;;;;6.7;79.3;98980;;;;
2021/11/22 14:50:01;;;;;;;7.5;14.5;;;;;;;6.7;79.7;98990;;;;
2021/11/22 15:01:01;;;;;;;7.5;14.5;;;;;;;6.7;79.7;99010;;;;
2021/11/22 15:11:01;;;;;;;15.9;19.9;;;;;;;6.7;80.1;99020;;;;
2021/11/22 15:21:01;;;;;;;15.9;19.9;;;;;;;6.6;80.3;99020;;;;
2021/11/22 15:32:01;;;;;;;15.9;19.9;;;;;;;6.7;80.5;99030;;;;
2021/11/22 15:42:01;;;;;;;17.8;20.7;;;;;;;6.7;80.4;99040;;;;
2021/11/22 15:53:03;;;;;;;17.8;20.7;;;;;;;6.6;80.7;99050;;;;
2021/11/22 16:04:03;;;;;;;17.8;20.7;;;;;;;6.7;80.8;99070;;;;
2021/11/22 16:14:01;;;;;;;25.5;28.9;;;;;;;6.6;80.9;99080;;;;
2021/11/22 16:24:02;;;;;;;25.5;28.9;;;;;;;6.7;81;99100;;;;
2021/11/22 16:34:01;;;;;;;25.5;28.9;;;;;;;6.8;80.9;99100;;;;
2021/11/22 16:45:01;;;;;;;27.7;35.3;;;;;;;6.6;80.7;99110;;;;
2021/11/22 16:56:01;;;;;;;27.7;35.3;;;;;;;6.6;80.8;99120;;;;
2021/11/22 17:06:01;;;;;;;27.7;35.3;;;;;;;6.4;81.3;99130;;;;
2021/11/22 17:16:01;;;;;;;29.1;33.8;;;;;;;6.4;81.3;99140;;;;
2021/11/22 17:27:01;;;;;;;29.1;33.8;;;;;;;6.4;81;99150;;;;
2021/11/22 17:38:01;;;;;;;34.6;47.1;;;;;;;6.3;80.3;99170;;;;
2021/11/22 17:49:01;;;;;;;34.6;47.1;;;;;;;6.3;79;99180;;;;
2021/11/22 18:00:01;;;;;;;34.6;47.1;;;;;;;6.2;78.4;99200;;;;
2021/11/22 18:11:01;;;;;;;21.6;27;;;;;;;6.2;79;99210;;;;
2021/11/22 18:21:01;;;;;;;21.6;27;;;;;;;6;79.5;99220;;;;
2021/11/22 18:31:01;;;;;;;21.6;27;;;;;;;6;79.2;99230;;;;
2021/11/22 18:41:01;;;;;;;23.2;26.1;;;;;;;6.1;78.6;99240;;;;
2021/11/22 18:51:01;;;;;;;23.2;26.1;;;;;;;6;78.5;99250;;;;
2021/11/22 19:01:01;;;;;;;23.2;26.1;;;;;;;5.9;78.8;99250;;;;
2021/11/22 19:12:01;;;;;;;23.3;28.4;;;;;;;5.9;78.7;99270;;;;
2021/11/22 19:22:01;;;;;;;23.3;28.4;;;;;;;5.9;78.6;99280;;;;
2021/11/22 19:32:01;;;;;;;23.3;28.4;;;;;;;5.9;79;99300;;;;
2021/11/22 19:42:01;;;;;;;24.7;31;;;;;;;5.8;79.1;99300;;;;
2021/11/22 19:52:01;;;;;;;24.7;31;;;;;;;5.7;79.2;99320;;;;
2021/11/22 20:03:01;;;;;;;24.7;31;;;;;;;5.7;79.2;99320;;;;
2021/11/22 20:14:03;;;;;;;22.5;25.1;;;;;;;5.6;78.7;99330;;;;
2021/11/22 20:24:01;;;;;;;22.5;25.1;;;;;;;5.6;78.8;99350;;;;
2021/11/22 20:34:01;;;;;;;22.5;25.1;;;;;;;5.6;78.9;99360;;;;
2021/11/22 20:45:01;;;;;;;20.3;24.9;;;;;;;5.6;78.7;99380;;;;
2021/11/22 20:56:02;;;;;;;20.3;24.9;;;;;;;5.5;78.6;99380;;;;
2021/11/22 21:07:01;;;;;;;20.3;24.9;;;;;;;5.5;78.9;99380;;;;
2021/11/22 21:17:01;;;;;;;20.8;28.2;;;;;;;5.5;78.9;99390;;;;
2021/11/22 21:28:01;;;;;;;20.8;28.2;;;;;;;5.4;78.4;99400;;;;
2021/11/22 21:39:01;;;;;;;21.6;27;;;;;;;5.3;78.1;99410;;;;
2021/11/22 21:49:01;;;;;;;21.6;27;;;;;;;5.3;76.1;99410;;;;
2021/11/22 22:00:01;;;;;;;21.6;27;;;;;;;5.3;76.3;99420;;;;
2021/11/22 22:11:01;;;;;;;15.7;18.9;;;;;;;5;74.7;99440;;;;
2021/11/22 22:22:01;;;;;;;15.7;18.9;;;;;;;4.9;74.1;99450;;;;
2021/11/22 22:33:01;;;;;;;15.7;18.9;;;;;;;4.8;74.3;99460;;;;
2021/11/22 22:44:01;;;;;;;11.8;17.8;;;;;;;4.6;75;99480;;;;
2021/11/22 22:54:01;;;;;;;11.8;17.8;;;;;;;4.6;74.8;99480;;;;
2021/11/22 23:05:04;;;;;;;11.8;17.8;;;;;;;4.5;73.1;99490;;;;
2021/11/22 23:15:01;;;;;;;9.7;12;;;;;;;4.5;73.4;99490;;;;
2021/11/22 23:26:01;;;;;;;9.7;12;;;;;;;4.4;74.3;99500;;;;
2021/11/22 23:37:01;;;;;;;11.1;14.4;;;;;;;4.3;74.5;99500;;;;
2021/11/22 23:47:01;;;;;;;11.1;14.4;;;;;;;4.1;74.4;99500;;;;
2021/11/22 23:57:01;;;;;;;11.1;14.4;;;;;;;4.1;74.6;99500;;;;
